sensor_id;sensor_type;location;lat;lon;timestamp;pressure;altitude;pressure_sealevel;temperature;humidity
33163;BME280;29282;45.656;11.302;2024-03-07T00:00:44;98395.66;;;19.68;49.14
33163;BME280;29282;45.656;11.302;2024-03-07T00:03:10;98394.84;;;19.68;49.13
33163;BME280;29282;45.656;11.302;2024-03-07T00:05:36;98390.84;;;19.65;49.27
33163;BME280;29282;45.656;11.302;2024-03-07T00:08:01;98394.72;;;19.64;49.12
33163;BME280;29282;45.656;11.302;2024-03-07T00:10:31;98400.22;;;19.64;49.32
33163;BME280;29282;45.656;11.302;2024-03-07T00:12:57;98392.28;;;19.63;49.28
33163;BME280;29282;45.656;11.302;2024-03-07T00:15:22;98395.38;;;19.61;49.30
33163;BME280;29282;45.656;11.302;2024-03-07T00:17:48;98400.06;;;19.61;49.20
33163;BME280;29282;45.656;11.302;2024-03-07T00:20:13;98390.22;;;19.60;49.35
33163;BME280;29282;45.656;11.302;2024-03-07T00:22:44;98392.16;;;19.59;49.27
33163;BME280;29282;45.656;11.302;2024-03-07T00:25:10;98387.81;;;19.58;49.26
33163;BME280;29282;45.656;11.302;2024-03-07T00:27:39;98397.22;;;19.57;49.29
33163;BME280;29282;45.656;11.302;2024-03-07T00:30:05;98394.47;;;19.57;49.31
33163;BME280;29282;45.656;11.302;2024-03-07T00:32:31;98389.28;;;19.56;49.23
33163;BME280;29282;45.656;11.302;2024-03-07T00:35:01;98396.72;;;19.55;49.29
33163;BME280;29282;45.656;11.302;2024-03-07T00:37:30;98390.44;;;19.55;49.21
33163;BME280;29282;45.656;11.302;2024-03-07T00:39:56;98389.63;;;19.54;49.28
33163;BME280;29282;45.656;11.302;2024-03-07T00:42:22;98393.50;;;19.53;49.36
33163;BME280;29282;45.656;11.302;2024-03-07T00:44:47;98391.91;;;19.52;49.36
33163;BME280;29282;45.656;11.302;2024-03-07T00:47:14;98391.91;;;19.52;49.29
33163;BME280;29282;45.656;11.302;2024-03-07T00:49:40;98395.81;;;19.51;49.37
33163;BME280;29282;45.656;11.302;2024-03-07T00:52:05;98393.38;;;19.49;49.36
33163;BME280;29282;45.656;11.302;2024-03-07T00:54:31;98392.59;;;19.49;49.40
33163;BME280;29282;45.656;11.302;2024-03-07T00:56:56;98390.19;;;19.47;49.35
33163;BME280;29282;45.656;11.302;2024-03-07T00:59:22;98389.41;;;19.47;49.29
33163;BME280;29282;45.656;11.302;2024-03-07T01:01:47;98394.06;;;19.46;49.36
33163;BME280;29282;45.656;11.302;2024-03-07T01:04:14;98380.69;;;19.45;49.34
33163;BME280;29282;45.656;11.302;2024-03-07T01:06:40;98385.38;;;19.44;49.51
33163;BME280;29282;45.656;11.302;2024-03-07T01:09:06;98383.75;;;19.43;49.24
33163;BME280;29282;45.656;11.302;2024-03-07T01:11:42;98387.31;;;19.44;49.36
33163;BME280;29282;45.656;11.302;2024-03-07T01:14:07;98390.38;;;19.42;49.34
33163;BME280;29282;45.656;11.302;2024-03-07T01:16:33;98392.34;;;19.42;49.44
33163;BME280;29282;45.656;11.302;2024-03-07T01:19:00;98388.00;;;19.41;49.32
33163;BME280;29282;45.656;11.302;2024-03-07T01:21:25;98377.00;;;19.41;49.34
33163;BME280;29282;45.656;11.302;2024-03-07T01:23:51;98380.06;;;19.39;49.33
33163;BME280;29282;45.656;11.302;2024-03-07T01:26:16;98383.63;;;19.40;49.43
33163;BME280;29282;45.656;11.302;2024-03-07T01:28:42;98379.28;;;19.39;49.43
33163;BME280;29282;45.656;11.302;2024-03-07T01:31:08;98374.94;;;19.38;49.30
33163;BME280;29282;45.656;11.302;2024-03-07T01:33:35;98372.50;;;19.36;49.58
33163;BME280;29282;45.656;11.302;2024-03-07T01:36:01;98372.50;;;19.36;49.37
33163;BME280;29282;45.656;11.302;2024-03-07T01:38:26;98363.47;;;19.36;49.41
33163;BME280;29282;45.656;11.302;2024-03-07T01:40:52;98367.38;;;19.35;49.46
33163;BME280;29282;45.656;11.302;2024-03-07T01:43:17;98365.78;;;19.34;49.45
33163;BME280;29282;45.656;11.302;2024-03-07T01:45:43;98367.69;;;19.33;49.36
33163;BME280;29282;45.656;11.302;2024-03-07T01:48:09;98357.53;;;19.34;49.36
33163;BME280;29282;45.656;11.302;2024-03-07T01:50:36;98364.16;;;19.33;49.36
33163;BME280;29282;45.656;11.302;2024-03-07T01:53:09;98364.94;;;19.33;49.40
33163;BME280;29282;45.656;11.302;2024-03-07T01:55:37;98359.81;;;19.32;49.53
33163;BME280;29282;45.656;11.302;2024-03-07T01:58:08;98358.19;;;19.31;49.37
33163;BME280;29282;45.656;11.302;2024-03-07T02:00:37;98354.63;;;19.30;49.29
33163;BME280;29282;45.656;11.302;2024-03-07T02:03:03;98359.31;;;19.30;49.35
33163;BME280;29282;45.656;11.302;2024-03-07T02:05:28;98354.97;;;19.29;49.41
33163;BME280;29282;45.656;11.302;2024-03-07T02:07:54;98354.97;;;19.29;49.31
33163;BME280;29282;45.656;11.302;2024-03-07T02:10:19;98351.44;;;19.28;49.40
33163;BME280;29282;45.656;11.302;2024-03-07T02:12:45;98346.25;;;19.27;49.38
33163;BME280;29282;45.656;11.302;2024-03-07T02:15:11;98349.00;;;19.27;49.08
33163;BME280;29282;45.656;11.302;2024-03-07T02:17:39;98350.16;;;19.25;49.28
33163;BME280;29282;45.656;11.302;2024-03-07T02:20:05;98341.13;;;19.25;49.33
33163;BME280;29282;45.656;11.302;2024-03-07T02:22:33;98342.72;;;19.26;49.33
33163;BME280;29282;45.656;11.302;2024-03-07T02:24:58;98337.56;;;19.24;49.32
33163;BME280;29282;45.656;11.302;2024-03-07T02:27:24;98339.53;;;19.24;49.35
33163;BME280;29282;45.656;11.302;2024-03-07T02:29:49;98337.91;;;19.23;49.37
33163;BME280;29282;45.656;11.302;2024-03-07T02:32:16;98336.31;;;19.22;49.40
33163;BME280;29282;45.656;11.302;2024-03-07T02:34:43;98339.06;;;19.22;49.36
33163;BME280;29282;45.656;11.302;2024-03-07T02:37:09;98326.47;;;19.21;49.28
33163;BME280;29282;45.656;11.302;2024-03-07T02:39:36;98341.78;;;19.22;49.32
33163;BME280;29282;45.656;11.302;2024-03-07T02:42:01;98335.03;;;19.19;49.28
33163;BME280;29282;45.656;11.302;2024-03-07T02:44:27;98328.75;;;19.19;49.39
33163;BME280;29282;45.656;11.302;2024-03-07T02:46:53;98330.69;;;19.18;49.34
33163;BME280;29282;45.656;11.302;2024-03-07T02:49:20;98335.03;;;19.19;49.39
33163;BME280;29282;45.656;11.302;2024-03-07T02:51:47;98327.16;;;19.18;49.10
33163;BME280;29282;45.656;11.302;2024-03-07T02:54:12;98324.72;;;19.16;49.38
33163;BME280;29282;45.656;11.302;2024-03-07T02:56:38;98324.72;;;19.16;49.37
33163;BME280;29282;45.656;11.302;2024-03-07T02:59:03;98329.41;;;19.16;49.46
33163;BME280;29282;45.656;11.302;2024-03-07T03:01:29;98324.28;;;19.14;49.45
33163;BME280;29282;45.656;11.302;2024-03-07T03:03:54;98330.22;;;19.16;49.39
33163;BME280;29282;45.656;11.302;2024-03-07T03:06:19;98323.13;;;19.15;49.43
33163;BME280;29282;45.656;11.302;2024-03-07T03:08:50;98323.44;;;19.14;49.39
33163;BME280;29282;45.656;11.302;2024-03-07T03:11:19;98323.78;;;19.12;49.47
33163;BME280;29282;45.656;11.302;2024-03-07T03:13:45;98330.88;;;19.13;49.42
33163;BME280;29282;45.656;11.302;2024-03-07T03:16:13;98332.03;;;19.12;49.34
33163;BME280;29282;45.656;11.302;2024-03-07T03:18:39;98331.22;;;19.12;49.41
33163;BME280;29282;45.656;11.302;2024-03-07T03:21:04;98329.28;;;19.12;49.43
33163;BME280;29282;45.656;11.302;2024-03-07T03:23:32;98324.16;;;19.11;49.45
33163;BME280;29282;45.656;11.302;2024-03-07T03:25:59;98330.75;;;19.10;49.40
33163;BME280;29282;45.656;11.302;2024-03-07T03:28:25;98335.44;;;19.09;49.45
33163;BME280;29282;45.656;11.302;2024-03-07T03:30:50;98332.72;;;19.09;49.33
33163;BME280;29282;45.656;11.302;2024-03-07T03:33:17;98338.19;;;19.09;49.39
33163;BME280;29282;45.656;11.302;2024-03-07T03:35:43;98332.72;;;19.09;49.41
33163;BME280;29282;45.656;11.302;2024-03-07T03:38:08;98338.56;;;19.08;49.43
33163;BME280;29282;45.656;11.302;2024-03-07T03:40:35;98339.66;;;19.07;49.48
33163;BME280;29282;45.656;11.302;2024-03-07T03:43:00;98336.13;;;19.06;49.47
33163;BME280;29282;45.656;11.302;2024-03-07T03:45:26;98324.34;;;19.06;49.58
33163;BME280;29282;45.656;11.302;2024-03-07T03:47:52;98329.84;;;19.06;49.42
33163;BME280;29282;45.656;11.302;2024-03-07T03:50:18;98333.72;;;19.05;49.40
33163;BME280;29282;45.656;11.302;2024-03-07T03:52:48;98330.97;;;19.05;49.40
33163;BME280;29282;45.656;11.302;2024-03-07T03:55:14;98332.47;;;19.02;49.41
33163;BME280;29282;45.656;11.302;2024-03-07T03:57:44;98333.25;;;19.02;49.38
33163;BME280;29282;45.656;11.302;2024-03-07T04:00:10;98333.72;;;19.05;49.35
33163;BME280;29282;45.656;11.302;2024-03-07T04:02:44;98323.41;;;19.01;49.40
33163;BME280;29282;45.656;11.302;2024-03-07T04:05:11;98332.47;;;19.02;49.33
33163;BME280;29282;45.656;11.302;2024-03-07T04:07:37;98326.16;;;19.01;49.46
33163;BME280;29282;45.656;11.302;2024-03-07T04:10:03;98324.22;;;19.02;49.43
33163;BME280;29282;45.656;11.302;2024-03-07T04:12:29;98324.53;;;19.00;49.43
33163;BME280;29282;45.656;11.302;2024-03-07T04:14:55;98319.88;;;19.01;49.32
33163;BME280;29282;45.656;11.302;2024-03-07T04:17:21;98323.75;;;19.00;49.49
33163;BME280;29282;45.656;11.302;2024-03-07T04:19:46;98324.91;;;18.99;49.48
33163;BME280;29282;45.656;11.302;2024-03-07T04:22:12;98329.59;;;18.98;49.27
33163;BME280;29282;45.656;11.302;2024-03-07T04:24:38;98325.25;;;18.97;49.36
33163;BME280;29282;45.656;11.302;2024-03-07T04:27:06;98328.00;;;18.97;49.36
33163;BME280;29282;45.656;11.302;2024-03-07T04:29:34;98328.00;;;18.97;49.38
33163;BME280;29282;45.656;11.302;2024-03-07T04:32:00;98335.41;;;18.97;49.37
33163;BME280;29282;45.656;11.302;2024-03-07T04:34:27;98331.53;;;18.98;49.45
33163;BME280;29282;45.656;11.302;2024-03-07T04:36:53;98326.72;;;18.95;49.38
33163;BME280;29282;45.656;11.302;2024-03-07T04:39:18;98337.34;;;18.96;49.47
33163;BME280;29282;45.656;11.302;2024-03-07T04:41:55;98329.47;;;18.95;49.38
33163;BME280;29282;45.656;11.302;2024-03-07T04:44:21;98334.94;;;18.95;49.42
33163;BME280;29282;45.656;11.302;2024-03-07T04:46:50;98331.41;;;18.94;49.30
33163;BME280;29282;45.656;11.302;2024-03-07T04:49:21;98334.94;;;18.95;49.32
33163;BME280;29282;45.656;11.302;2024-03-07T04:51:49;98331.72;;;18.93;49.47
33163;BME280;29282;45.656;11.302;2024-03-07T04:54:15;98338.00;;;18.93;49.41
33163;BME280;29282;45.656;11.302;2024-03-07T04:56:40;98333.31;;;18.94;49.41
33163;BME280;29282;45.656;11.302;2024-03-07T04:59:06;98334.47;;;18.93;49.49
33163;BME280;29282;45.656;11.302;2024-03-07T05:01:31;98341.09;;;18.92;49.49
33163;BME280;29282;45.656;11.302;2024-03-07T05:03:57;98343.84;;;18.92;49.33
33163;BME280;29282;45.656;11.302;2024-03-07T05:06:23;98337.56;;;18.91;49.35
33163;BME280;29282;45.656;11.302;2024-03-07T05:08:48;98338.69;;;18.90;49.35
33163;BME280;29282;45.656;11.302;2024-03-07T05:11:17;98337.09;;;18.89;49.53
33163;BME280;29282;45.656;11.302;2024-03-07T05:13:42;98340.63;;;18.90;49.38
33163;BME280;29282;45.656;11.302;2024-03-07T05:16:11;98340.97;;;18.88;49.40
33163;BME280;29282;45.656;11.302;2024-03-07T05:18:36;98339.84;;;18.89;49.40
33163;BME280;29282;45.656;11.302;2024-03-07T05:21:02;98341.78;;;18.89;49.33
33163;BME280;29282;45.656;11.302;2024-03-07T05:23:47;98346.78;;;18.87;49.46
33163;BME280;29282;45.656;11.302;2024-03-07T05:26:14;98353.09;;;18.87;49.47
33163;BME280;29282;45.656;11.302;2024-03-07T05:28:40;98346.00;;;18.86;49.39
33163;BME280;29282;45.656;11.302;2024-03-07T05:31:05;98355.03;;;18.87;49.43
33163;BME280;29282;45.656;11.302;2024-03-07T05:33:31;98346.78;;;18.87;49.33
33163;BME280;29282;45.656;11.302;2024-03-07T05:35:56;98352.28;;;18.87;49.33
33163;BME280;29282;45.656;11.302;2024-03-07T05:38:39;98351.84;;;18.85;49.38
33163;BME280;29282;45.656;11.302;2024-03-07T05:41:04;98351.84;;;18.85;49.36
33163;BME280;29282;45.656;11.302;2024-03-07T05:43:30;98347.47;;;18.84;49.36
33163;BME280;29282;45.656;11.302;2024-03-07T05:45:57;98361.19;;;18.84;49.45
33163;BME280;29282;45.656;11.302;2024-03-07T05:48:26;98357.31;;;18.85;49.36
33163;BME280;29282;45.656;11.302;2024-03-07T05:50:51;98363.47;;;18.82;49.53
33163;BME280;29282;45.656;11.302;2024-03-07T05:53:18;98363.47;;;18.82;49.48
33163;BME280;29282;45.656;11.302;2024-03-07T05:55:43;98370.91;;;18.81;49.28
33163;BME280;29282;45.656;11.302;2024-03-07T05:58:11;98373.66;;;18.81;49.25
33163;BME280;29282;45.656;11.302;2024-03-07T06:00:37;98369.78;;;18.82;49.29
33163;BME280;29282;45.656;11.302;2024-03-07T06:03:06;98371.50;;;18.87;49.21
33163;BME280;29282;45.656;11.302;2024-03-07T06:05:33;98376.81;;;18.92;49.19
33163;BME280;29282;45.656;11.302;2024-03-07T06:07:59;98374.91;;;19.05;48.76
33163;BME280;29282;45.656;11.302;2024-03-07T06:10:24;98380.19;;;19.10;48.67
33163;BME280;29282;45.656;11.302;2024-03-07T06:12:51;98386.34;;;19.28;48.41
33163;BME280;29282;45.656;11.302;2024-03-07T06:15:16;98383.63;;;19.40;48.07
33163;BME280;29282;45.656;11.302;2024-03-07T06:17:42;98394.66;;;19.52;47.75
33163;BME280;29282;45.656;11.302;2024-03-07T06:20:14;98396.69;;;19.64;47.53
33163;BME280;29282;45.656;11.302;2024-03-07T06:22:50;98392.69;;;19.74;47.44
33163;BME280;29282;45.656;11.302;2024-03-07T06:25:18;98388.56;;;19.80;47.25
33163;BME280;29282;45.656;11.302;2024-03-07T06:28:00;98400.63;;;19.87;47.10
33163;BME280;29282;45.656;11.302;2024-03-07T06:30:35;98399.94;;;19.90;47.13
33163;BME280;29282;45.656;11.302;2024-03-07T06:33:01;98399.94;;;19.90;47.05
33163;BME280;29282;45.656;11.302;2024-03-07T06:35:26;98401.19;;;19.93;47.12
33163;BME280;29282;45.656;11.302;2024-03-07T06:37:55;98407.38;;;19.90;47.08
33163;BME280;29282;45.656;11.302;2024-03-07T06:40:20;98403.50;;;19.91;47.43
33163;BME280;29282;45.656;11.302;2024-03-07T06:42:50;98398.00;;;19.91;47.21
33163;BME280;29282;45.656;11.302;2024-03-07T06:45:18;98404.63;;;19.90;47.23
33163;BME280;29282;45.656;11.302;2024-03-07T06:47:43;98404.63;;;19.90;47.36
33163;BME280;29282;45.656;11.302;2024-03-07T06:50:09;98402.69;;;19.90;47.38
33163;BME280;29282;45.656;11.302;2024-03-07T06:52:40;98403.50;;;19.91;47.27
33163;BME280;29282;45.656;11.302;2024-03-07T06:55:06;98407.72;;;19.88;47.38
33163;BME280;29282;45.656;11.302;2024-03-07T06:57:33;98401.75;;;19.86;47.45
33163;BME280;29282;45.656;11.302;2024-03-07T07:00:05;98404.16;;;19.88;47.50
33163;BME280;29282;45.656;11.302;2024-03-07T07:02:39;98397.88;;;19.87;47.59
33163;BME280;29282;45.656;11.302;2024-03-07T07:05:08;98406.56;;;19.89;47.25
33163;BME280;29282;45.656;11.302;2024-03-07T07:07:40;98404.75;;;19.93;47.39
33163;BME280;29282;45.656;11.302;2024-03-07T07:10:09;98404.63;;;20.02;47.05
33163;BME280;29282;45.656;11.302;2024-03-07T07:12:42;98402.94;;;20.10;46.84
33163;BME280;29282;45.656;11.302;2024-03-07T07:15:10;98398.78;;;20.16;46.91
33163;BME280;29282;45.656;11.302;2024-03-07T07:17:36;98404.41;;;20.19;46.70
33163;BME280;29282;45.656;11.302;2024-03-07T07:20:01;98408.44;;;20.22;46.60
33163;BME280;29282;45.656;11.302;2024-03-07T07:22:34;98417.47;;;20.23;46.77
33163;BME280;29282;45.656;11.302;2024-03-07T07:25:00;98423.09;;;20.26;46.71
33163;BME280;29282;45.656;11.302;2024-03-07T07:27:25;98412.25;;;20.30;46.68
33163;BME280;29282;45.656;11.302;2024-03-07T07:29:51;98424.03;;;20.30;46.76
33163;BME280;29282;45.656;11.302;2024-03-07T07:32:16;98422.88;;;20.31;46.90
33163;BME280;29282;45.656;11.302;2024-03-07T07:34:42;98418.19;;;20.32;46.79
33163;BME280;29282;45.656;11.302;2024-03-07T07:37:08;98419.78;;;20.33;46.90
33163;BME280;29282;45.656;11.302;2024-03-07T07:39:34;98424.47;;;20.32;47.08
33163;BME280;29282;45.656;11.302;2024-03-07T07:42:00;98424.94;;;20.34;47.29
33163;BME280;29282;45.656;11.302;2024-03-07T07:44:26;98425.28;;;20.33;47.23
33163;BME280;29282;45.656;11.302;2024-03-07T07:46:52;98422.78;;;20.28;47.24
33163;BME280;29282;45.656;11.302;2024-03-07T07:49:20;98432.63;;;20.29;47.23
33163;BME280;29282;45.656;11.302;2024-03-07T07:51:46;98423.56;;;20.28;47.29
33163;BME280;29282;45.656;11.302;2024-03-07T07:54:14;98426.00;;;20.30;47.11
33163;BME280;29282;45.656;11.302;2024-03-07T07:56:40;98427.59;;;20.31;47.14
33163;BME280;29282;45.656;11.302;2024-03-07T07:59:06;98428.50;;;20.35;47.18
33163;BME280;29282;45.656;11.302;2024-03-07T08:01:34;98427.69;;;20.34;47.20
33163;BME280;29282;45.656;11.302;2024-03-07T08:04:00;98438.72;;;20.34;47.25
33163;BME280;29282;45.656;11.302;2024-03-07T08:06:25;98433.31;;;20.38;47.02
33163;BME280;29282;45.656;11.302;2024-03-07T08:08:51;98438.03;;;20.37;47.23
33163;BME280;29282;45.656;11.302;2024-03-07T08:11:19;98432.53;;;20.37;47.29
33163;BME280;29282;45.656;11.302;2024-03-07T08:13:45;98439.97;;;20.37;47.18
33163;BME280;29282;45.656;11.302;2024-03-07T08:16:15;98441.94;;;20.36;47.44
33163;BME280;29282;45.656;11.302;2024-03-07T08:18:40;98434.47;;;20.37;47.42
33163;BME280;29282;45.656;11.302;2024-03-07T08:21:06;98437.66;;;20.39;47.30
33163;BME280;29282;45.656;11.302;2024-03-07T08:23:33;98442.03;;;20.40;47.14
33163;BME280;29282;45.656;11.302;2024-03-07T08:25:58;98437.22;;;20.37;47.30
33163;BME280;29282;45.656;11.302;2024-03-07T08:28:24;98443.53;;;20.37;47.26
33163;BME280;29282;45.656;11.302;2024-03-07T08:30:49;98438.81;;;20.38;47.29
33163;BME280;29282;45.656;11.302;2024-03-07T08:33:16;98436.06;;;20.38;47.35
33163;BME280;29282;45.656;11.302;2024-03-07T08:35:41;98438.81;;;20.38;47.47
33163;BME280;29282;45.656;11.302;2024-03-07T08:38:07;98439.50;;;20.35;47.48
33163;BME280;29282;45.656;11.302;2024-03-07T08:40:35;98441.47;;;20.34;47.50
33163;BME280;29282;45.656;11.302;2024-03-07T08:43:01;98438.72;;;20.34;47.46
33163;BME280;29282;45.656;11.302;2024-03-07T08:45:28;98441.09;;;20.36;47.59
33163;BME280;29282;45.656;11.302;2024-03-07T08:47:55;98438.72;;;20.34;47.45
33163;BME280;29282;45.656;11.302;2024-03-07T08:50:22;98435.16;;;20.34;47.76
33163;BME280;29282;45.656;11.302;2024-03-07T08:52:49;98439.50;;;20.35;47.61
33163;BME280;29282;45.656;11.302;2024-03-07T08:55:17;98442.63;;;20.33;47.72
33163;BME280;29282;45.656;11.302;2024-03-07T08:57:44;98439.03;;;20.33;47.53
33163;BME280;29282;45.656;11.302;2024-03-07T09:00:12;98435.50;;;20.32;47.77
33163;BME280;29282;45.656;11.302;2024-03-07T09:02:47;98436.66;;;20.31;47.79
33163;BME280;29282;45.656;11.302;2024-03-07T09:05:13;98440.56;;;20.30;47.75
33163;BME280;29282;45.656;11.302;2024-03-07T09:07:38;98448.00;;;20.30;47.68
33163;BME280;29282;45.656;11.302;2024-03-07T09:10:07;98448.34;;;20.28;47.68
33163;BME280;29282;45.656;11.302;2024-03-07T09:12:32;98442.03;;;20.28;47.97
33163;BME280;29282;45.656;11.302;2024-03-07T09:14:58;98449.13;;;20.29;47.76
33163;BME280;29282;45.656;11.302;2024-03-07T09:17:23;98441.22;;;20.27;47.95
33163;BME280;29282;45.656;11.302;2024-03-07T09:19:49;98445.13;;;20.26;47.95
33163;BME280;29282;45.656;11.302;2024-03-07T09:22:15;98442.72;;;20.25;47.88
33163;BME280;29282;45.656;11.302;2024-03-07T09:24:40;98447.06;;;20.26;47.95
33163;BME280;29282;45.656;11.302;2024-03-07T09:27:06;98447.75;;;20.23;47.96
33163;BME280;29282;45.656;11.302;2024-03-07T09:29:32;98454.41;;;20.22;48.01
33163;BME280;29282;45.656;11.302;2024-03-07T09:31:57;98446.16;;;20.22;47.94
33163;BME280;29282;45.656;11.302;2024-03-07T09:34:24;98454.88;;;20.24;47.85
33163;BME280;29282;45.656;11.302;2024-03-07T09:36:51;98457.16;;;20.22;47.86
33163;BME280;29282;45.656;11.302;2024-03-07T09:39:17;98450.50;;;20.23;47.82
33163;BME280;29282;45.656;11.302;2024-03-07T09:41:44;98440.31;;;20.23;47.74
33163;BME280;29282;45.656;11.302;2024-03-07T09:44:14;98449.38;;;20.24;47.84
33163;BME280;29282;45.656;11.302;2024-03-07T09:46:47;98450.84;;;20.21;47.90
33163;BME280;29282;45.656;11.302;2024-03-07T09:49:14;98447.75;;;20.23;47.75
33163;BME280;29282;45.656;11.302;2024-03-07T09:51:40;98454.41;;;20.22;47.88
33163;BME280;29282;45.656;11.302;2024-03-07T09:54:08;98447.63;;;20.19;47.96
33163;BME280;29282;45.656;11.302;2024-03-07T09:56:34;98450.38;;;20.19;47.98
33163;BME280;29282;45.656;11.302;2024-03-07T09:59:12;98444.09;;;20.18;47.99
33163;BME280;29282;45.656;11.302;2024-03-07T10:01:39;98451.53;;;20.18;47.85
33163;BME280;29282;45.656;11.302;2024-03-07T10:04:08;98454.28;;;20.18;47.95
33163;BME280;29282;45.656;11.302;2024-03-07T10:06:38;98446.03;;;20.18;47.89
33163;BME280;29282;45.656;11.302;2024-03-07T10:09:07;98449.94;;;20.17;48.02
33163;BME280;29282;45.656;11.302;2024-03-07T10:11:35;98458.19;;;20.17;48.09
33163;BME280;29282;45.656;11.302;2024-03-07T10:14:01;98459.19;;;20.12;47.92
33163;BME280;29282;45.656;11.302;2024-03-07T10:16:28;98454.16;;;20.14;48.14
33163;BME280;29282;45.656;11.302;2024-03-07T10:18:54;98450.50;;;20.10;48.04
33163;BME280;29282;45.656;11.302;2024-03-07T10:21:20;98460.72;;;20.10;47.96
33163;BME280;29282;45.656;11.302;2024-03-07T10:23:46;98465.38;;;20.09;48.16
33163;BME280;29282;45.656;11.302;2024-03-07T10:26:12;98457.47;;;20.08;48.07
33163;BME280;29282;45.656;11.302;2024-03-07T10:28:38;98462.63;;;20.09;48.20
33163;BME280;29282;45.656;11.302;2024-03-07T10:31:07;98462.63;;;20.09;48.08
33163;BME280;29282;45.656;11.302;2024-03-07T10:33:37;98477.06;;;20.06;48.30
33163;BME280;29282;45.656;11.302;2024-03-07T10:36:03;98466.88;;;20.07;48.21
33163;BME280;29282;45.656;11.302;2024-03-07T10:38:28;98465.63;;;20.04;48.44
33163;BME280;29282;45.656;11.302;2024-03-07T10:40:55;98460.44;;;20.03;48.37
33163;BME280;29282;45.656;11.302;2024-03-07T10:43:22;98454.94;;;20.03;48.20
33163;BME280;29282;45.656;11.302;2024-03-07T10:45:48;98455.75;;;20.03;48.22
33163;BME280;29282;45.656;11.302;2024-03-07T10:48:18;98456.22;;;20.05;48.16
33163;BME280;29282;45.656;11.302;2024-03-07T10:51:17;98460.91;;;20.05;48.22
33163;BME280;29282;45.656;11.302;2024-03-07T10:54:03;98456.91;;;20.02;48.17
33163;BME280;29282;45.656;11.302;2024-03-07T10:59:19;98463.06;;;19.99;48.20
33163;BME280;29282;45.656;11.302;2024-03-07T11:02:02;98458.25;;;19.96;48.38
33163;BME280;29282;45.656;11.302;2024-03-07T11:04:36;98460.56;;;19.94;48.53
33163;BME280;29282;45.656;11.302;2024-03-07T11:07:02;98452.75;;;19.96;48.33
33163;BME280;29282;45.656;11.302;2024-03-07T11:09:28;98454.94;;;19.90;48.47
33163;BME280;29282;45.656;11.302;2024-03-07T11:11:59;98452.63;;;19.92;48.45
33163;BME280;29282;45.656;11.302;2024-03-07T11:14:26;98450.56;;;19.89;48.52
33163;BME280;29282;45.656;11.302;2024-03-07T11:16:53;98453.19;;;19.86;48.54
33163;BME280;29282;45.656;11.302;2024-03-07T11:19:31;98445.16;;;19.81;48.67
33163;BME280;29282;45.656;11.302;2024-03-07T11:21:59;98447.44;;;19.79;48.83
33163;BME280;29282;45.656;11.302;2024-03-07T11:24:29;98435.97;;;19.77;48.56
33163;BME280;29282;45.656;11.302;2024-03-07T11:26:58;98446.16;;;19.76;48.61
33163;BME280;29282;45.656;11.302;2024-03-07T11:32:12;98436.69;;;19.74;48.81
33163;BME280;29282;45.656;11.302;2024-03-07T11:34:39;98440.56;;;19.73;48.75
33163;BME280;29282;45.656;11.302;2024-03-07T11:37:08;98439.75;;;19.72;48.64
33163;BME280;29282;45.656;11.302;2024-03-07T11:39:47;98436.22;;;19.71;48.64
33163;BME280;29282;45.656;11.302;2024-03-07T11:42:19;98432.66;;;19.71;48.41
33163;BME280;29282;45.656;11.302;2024-03-07T11:44:47;98438.16;;;19.71;48.52
33163;BME280;29282;45.656;11.302;2024-03-07T11:47:17;98430.22;;;19.69;48.57
33163;BME280;29282;45.656;11.302;2024-03-07T11:49:53;98426.50;;;19.74;48.63
33163;BME280;29282;45.656;11.302;2024-03-07T11:52:19;98420.19;;;19.74;48.89
33163;BME280;29282;45.656;11.302;2024-03-07T11:54:44;98420.63;;;19.76;48.73
33163;BME280;29282;45.656;11.302;2024-03-07T11:57:16;98415.25;;;19.79;48.59
33163;BME280;29282;45.656;11.302;2024-03-07T11:59:45;98419.28;;;19.82;48.59
33163;BME280;29282;45.656;11.302;2024-03-07T12:02:14;98422.16;;;19.85;48.52
33163;BME280;29282;45.656;11.302;2024-03-07T12:04:46;98416.56;;;19.94;48.38
33163;BME280;29282;45.656;11.302;2024-03-07T12:07:12;98409.94;;;20.07;48.12
33163;BME280;29282;45.656;11.302;2024-03-07T12:09:40;98414.97;;;20.17;47.94
33163;BME280;29282;45.656;11.302;2024-03-07T12:12:11;98409.03;;;20.28;47.79
33163;BME280;29282;45.656;11.302;2024-03-07T12:14:38;98410.41;;;20.34;47.67
33163;BME280;29282;45.656;11.302;2024-03-07T12:17:04;98411.78;;;20.40;47.85
33163;BME280;29282;45.656;11.302;2024-03-07T12:19:32;98413.38;;;20.41;47.76
33163;BME280;29282;45.656;11.302;2024-03-07T12:22:01;98413.47;;;20.45;47.81
33163;BME280;29282;45.656;11.302;2024-03-07T12:24:27;98410.50;;;20.50;47.58
33163;BME280;29282;45.656;11.302;2024-03-07T12:27:04;98411.19;;;20.47;47.84
33163;BME280;29282;45.656;11.302;2024-03-07T12:29:30;98413.94;;;20.47;47.80
33163;BME280;29282;45.656;11.302;2024-03-07T12:31:56;98409.94;;;20.44;47.90
33163;BME280;29282;45.656;11.302;2024-03-07T12:34:21;98405.13;;;20.41;48.07
33163;BME280;29282;45.656;11.302;2024-03-07T12:36:51;98405.91;;;20.41;48.06
33163;BME280;29282;45.656;11.302;2024-03-07T12:39:23;98409.13;;;20.44;47.79
33163;BME280;29282;45.656;11.302;2024-03-07T12:41:56;98402.13;;;20.46;48.00
33163;BME280;29282;45.656;11.302;2024-03-07T12:44:22;98399.84;;;20.48;47.70
33163;BME280;29282;45.656;11.302;2024-03-07T12:46:54;98390.91;;;20.51;47.84
33163;BME280;29282;45.656;11.302;2024-03-07T12:49:25;98388.16;;;20.51;47.71
33163;BME280;29282;45.656;11.302;2024-03-07T12:51:55;98390.56;;;20.53;47.72
33163;BME280;29282;45.656;11.302;2024-03-07T12:54:22;98386.31;;;20.55;47.64
33163;BME280;29282;45.656;11.302;2024-03-07T12:56:49;98384.03;;;20.57;47.69